Time;durP1;ratioP1;P1;durP2;ratioP2;P2;SDS_P1;SDS_P2;PMS_P1;PMS_P2;Temp;Humidity;BMP_temperature;BMP_pressure;BME280_temperature;BME280_humidity;BME280_pressure;Samples;Min_cycle;Max_cycle;Signal;HPM_P1;HPM_P2
2021/12/20 00:02:21;;;;;;;22.05;14.75;;;;;;;5.12;100.00;101684.34;5049428;28;20028;-58
2021/12/20 00:04:51;;;;;;;21.08;13.50;;;;;;;5.25;100.00;101708.56;5049383;28;20032;-58
2021/12/20 00:07:16;;;;;;;26.85;13.70;;;;;;;5.24;100.00;101704.25;5048273;28;20028;-58
2021/12/20 00:09:42;;;;;;;31.70;15.02;;;;;;;5.23;100.00;101694.69;5049524;28;20218;-58
2021/12/20 00:12:07;;;;;;;21.02;14.23;;;;;;;5.23;100.00;101689.50;5047953;28;20866;-57
2021/12/20 00:14:33;;;;;;;28.65;14.15;;;;;;;5.22;100.00;101687.75;5050284;28;20125;-59
2021/12/20 00:16:58;;;;;;;29.33;14.73;;;;;;;5.21;100.00;101692.09;5029917;28;20047;-57
2021/12/20 00:19:25;;;;;;;20.48;13.65;;;;;;;5.20;100.00;101679.09;5048701;28;20059;-58
2021/12/20 00:21:50;;;;;;;16.70;13.18;;;;;;;5.11;100.00;101673.06;5049500;28;20033;-58
2021/12/20 00:24:17;;;;;;;19.17;13.57;;;;;;;5.17;100.00;101673.91;5049696;28;20086;-58
2021/12/20 00:26:42;;;;;;;19.95;14.02;;;;;;;5.15;100.00;101677.38;5051474;28;20028;-58
2021/12/20 00:29:07;;;;;;;26.48;15.25;;;;;;;5.15;100.00;101685.19;5049988;28;20858;-58
2021/12/20 00:31:33;;;;;;;27.20;13.80;;;;;;;5.14;100.00;101675.66;5049820;28;20036;-58
2021/12/20 00:33:58;;;;;;;20.80;13.18;;;;;;;5.18;100.00;101686.03;5049023;28;20040;-58
2021/12/20 00:36:26;;;;;;;17.42;12.27;;;;;;;5.06;100.00;101667.03;5049234;28;20035;-58
2021/12/20 00:41:36;;;;;;;17.15;13.35;;;;;;;5.13;100.00;101683.50;5048201;28;20094;-58
2021/12/20 00:44:01;;;;;;;26.02;15.55;;;;;;;5.08;100.00;101680.91;5046987;28;20892;-58
2021/12/20 00:46:27;;;;;;;19.83;12.75;;;;;;;5.11;100.00;101685.22;5049305;28;20062;-58
2021/12/20 00:48:52;;;;;;;20.33;14.02;;;;;;;4.85;100.00;101630.72;5048266;28;20024;-58
2021/12/20 00:51:17;;;;;;;22.73;13.70;;;;;;;5.12;100.00;101687.84;5047728;28;20160;-58
2021/12/20 00:53:43;;;;;;;17.25;12.95;;;;;;;5.10;100.00;101668.72;5048463;28;20039;-58
2021/12/20 00:56:08;;;;;;;19.23;13.82;;;;;;;4.97;100.00;101642.78;5049000;28;20024;-58
2021/12/20 00:58:34;;;;;;;22.05;14.60;;;;;;;5.09;100.00;101672.22;5048131;28;20886;-58
2021/12/20 01:00:59;;;;;;;22.02;15.00;;;;;;;5.11;100.00;101670.47;5047097;28;20032;-58
2021/12/20 01:03:26;;;;;;;17.92;13.38;;;;;;;5.10;100.00;101668.72;5048672;28;20778;-58
2021/12/20 01:05:51;;;;;;;21.80;14.65;;;;;;;5.07;100.00;101663.53;5046850;28;20024;-58
2021/12/20 01:08:18;;;;;;;19.70;11.85;;;;;;;4.82;100.00;101629.88;5048087;28;20913;-58
2021/12/20 01:10:49;;;;;;;20.17;13.18;;;;;;;5.07;100.00;101678.31;5048290;28;20086;-58
2021/12/20 01:13:17;;;;;;;26.25;13.27;;;;;;;5.05;100.00;101674.84;5047876;28;20039;-58
2021/12/20 01:15:50;;;;;;;18.38;12.90;;;;;;;5.07;100.00;101678.31;5046568;28;20031;-58
2021/12/20 01:18:16;;;;;;;18.80;12.98;;;;;;;5.07;100.00;101675.69;5046999;28;20122;-58
2021/12/20 01:20:42;;;;;;;19.42;12.65;;;;;;;4.75;100.00;101616.03;5047756;28;20093;-58
2021/12/20 01:23:07;;;;;;;18.10;11.77;;;;;;;5.10;100.00;101671.31;5047249;28;20033;-58
2021/12/20 01:25:33;;;;;;;17.27;11.20;;;;;;;5.10;100.00;101673.94;5047984;28;20032;-58
2021/12/20 01:27:58;;;;;;;17.58;11.65;;;;;;;5.08;100.00;101665.28;5029788;28;20036;-58
2021/12/20 01:30:25;;;;;;;20.95;10.80;;;;;;;5.07;100.00;101666.16;5047226;28;20929;-58
2021/12/20 01:32:51;;;;;;;16.33;10.52;;;;;;;5.10;100.00;101667.88;5048136;28;20401;-58
2021/12/20 01:35:17;;;;;;;14.55;9.38;;;;;;;5.09;100.00;101667.03;5046584;28;20039;-58
2021/12/20 01:37:43;;;;;;;21.20;11.07;;;;;;;5.06;100.00;101669.66;5048031;28;20031;-58
2021/12/20 01:40:11;;;;;;;18.83;10.65;;;;;;;5.03;100.00;101667.06;5047179;28;20020;-58
2021/12/20 01:42:37;;;;;;;13.45;9.63;;;;;;;5.03;100.00;101669.69;5048282;28;20024;-58
2021/12/20 01:45:05;;;;;;;19.33;8.90;;;;;;;5.06;100.00;101667.03;5047578;28;20460;-58
2021/12/20 01:47:35;;;;;;;12.15;9.02;;;;;;;5.03;100.00;101672.28;5047109;28;20034;-58
2021/12/20 01:50:08;;;;;;;18.98;10.07;;;;;;;5.01;100.00;101674.00;5047276;28;20565;-58
2021/12/20 01:52:40;;;;;;;15.48;9.57;;;;;;;4.66;100.00;101603.09;5045436;28;20093;-58
2021/12/20 01:55:08;;;;;;;15.63;8.98;;;;;;;4.99;100.00;101665.34;5046070;28;20055;-58
2021/12/20 01:57:33;;;;;;;17.08;8.73;;;;;;;5.00;100.00;101663.63;5048523;28;20036;-58
2021/12/20 01:59:59;;;;;;;13.38;9.30;;;;;;;4.98;100.00;101663.63;5045813;28;20082;-58
2021/12/20 02:02:24;;;;;;;11.65;9.13;;;;;;;4.89;100.00;101647.19;5048183;28;20081;-58
2021/12/20 02:04:51;;;;;;;11.55;8.10;;;;;;;5.00;100.00;101667.06;5047184;28;20032;-58
2021/12/20 02:07:47;;;;;;;22.60;7.47;;;;;;;5.01;100.00;101668.81;5045457;28;20039;-58
2021/12/20 02:10:12;;;;;;;19.10;7.63;;;;;;;4.99;100.00;101665.34;5046231;28;20036;-58
2021/12/20 02:12:38;;;;;;;13.80;8.07;;;;;;;5.01;100.00;101662.72;5048255;28;21041;-58
2021/12/20 02:15:03;;;;;;;11.95;7.60;;;;;;;5.02;100.00;101667.94;5047097;28;20027;-58
2021/12/20 02:17:29;;;;;;;9.48;6.75;;;;;;;4.96;100.00;101662.78;5045313;28;20038;-60
2021/12/20 02:19:59;;;;;;;10.23;6.25;;;;;;;4.83;100.00;101648.13;5046707;28;20024;-58
2021/12/20 02:22:25;;;;;;;9.88;6.38;;;;;;;4.95;100.00;101662.78;5045781;28;20849;-58
2021/12/20 02:24:52;;;;;;;13.02;7.47;;;;;;;4.95;100.00;101653.22;5045336;28;20044;-58
2021/12/20 02:27:17;;;;;;;12.98;7.70;;;;;;;4.93;100.00;101659.31;5047600;28;20036;-58
2021/12/20 02:29:58;;;;;;;15.25;7.03;;;;;;;4.86;100.00;101650.69;5046727;28;20070;-58
2021/12/20 02:37:54;;;;;;;11.80;6.70;;;;;;;4.85;100.00;101661.97;5045689;28;20047;-58
2021/12/20 02:40:21;;;;;;;14.65;6.70;;;;;;;4.88;100.00;101661.94;5046722;28;20032;-58
2021/12/20 02:42:48;;;;;;;10.02;6.57;;;;;;;4.87;100.00;101655.00;5046500;28;20038;-58
2021/12/20 02:45:15;;;;;;;24.23;7.28;;;;;;;4.87;100.00;101644.59;5045842;28;20126;-58
2021/12/20 02:47:43;;;;;;;17.90;7.53;;;;;;;4.73;100.00;101625.59;5045820;28;20036;-58
2021/12/20 02:50:09;;;;;;;12.80;7.15;;;;;;;4.85;100.00;101651.56;5045825;28;20032;-58
2021/12/20 02:52:34;;;;;;;11.18;6.82;;;;;;;4.83;100.00;101648.13;5046027;28;20962;-58
2021/12/20 02:55:00;;;;;;;13.70;6.95;;;;;;;4.80;100.00;101644.66;5046402;28;20024;-58
2021/12/20 02:57:25;;;;;;;12.18;6.55;;;;;;;4.80;100.00;101642.91;5036654;28;20876;-58
2021/12/20 02:59:50;;;;;;;9.68;5.82;;;;;;;4.79;100.00;101654.22;5045319;28;20032;-58
2021/12/20 03:02:18;;;;;;;7.72;5.43;;;;;;;4.78;100.00;101649.00;5045886;28;20882;-58
2021/12/20 03:04:43;;;;;;;11.45;6.68;;;;;;;4.78;100.00;101652.47;5048628;28;20051;-57
2021/12/20 03:07:11;;;;;;;12.55;7.15;;;;;;;4.76;100.00;101654.22;5049895;28;20024;-58
2021/12/20 03:09:42;;;;;;;13.73;7.65;;;;;;;4.76;100.00;101650.75;5050391;28;20082;-58
2021/12/20 03:12:09;;;;;;;11.20;7.10;;;;;;;4.77;100.00;101658.53;5048858;28;20063;-58
2021/12/20 03:14:41;;;;;;;11.45;6.97;;;;;;;4.76;100.00;101649.03;5048822;28;20957;-58
2021/12/20 03:17:07;;;;;;;13.93;6.57;;;;;;;4.77;100.00;101650.72;5052771;28;20087;-58
2021/12/20 03:19:33;;;;;;;10.38;6.60;;;;;;;4.76;100.00;101650.75;5061971;28;20027;-58
2021/12/20 03:21:59;;;;;;;12.10;6.57;;;;;;;4.45;100.00;101598.03;5070616;28;20804;-58
2021/12/20 03:24:25;;;;;;;11.18;6.15;;;;;;;4.76;100.00;101648.16;5068578;28;20113;-58
2021/12/20 03:26:50;;;;;;;14.25;6.65;;;;;;;4.67;100.00;101636.03;5071325;28;20067;-58
2021/12/20 03:29:16;;;;;;;18.70;6.13;;;;;;;4.72;100.00;101643.84;5070427;28;21008;-58
2021/12/20 03:31:41;;;;;;;12.25;5.65;;;;;;;4.72;100.00;101643.84;5070713;28;20101;-58
2021/12/20 03:34:08;;;;;;;8.70;5.90;;;;;;;4.71;100.00;101650.78;5070600;28;20032;-58
2021/12/20 03:36:34;;;;;;;14.77;5.43;;;;;;;4.70;100.00;101646.44;5070025;28;20139;-58
2021/12/20 03:38:59;;;;;;;9.98;5.50;;;;;;;4.70;100.00;101654.25;5070515;28;20640;-58
2021/12/20 03:41:25;;;;;;;14.88;5.75;;;;;;;4.68;100.00;101648.19;5070656;28;20024;-58
2021/12/20 03:43:50;;;;;;;13.40;6.97;;;;;;;4.58;100.00;101631.78;5070332;28;20885;-58
2021/12/20 03:46:16;;;;;;;12.73;6.50;;;;;;;4.64;100.00;101646.47;5070175;28;20130;-58
2021/12/20 03:48:41;;;;;;;13.27;6.60;;;;;;;4.62;100.00;101638.69;5070169;28;20028;-58
2021/12/20 03:51:07;;;;;;;12.40;6.43;;;;;;;4.64;100.00;101642.13;5070182;28;20027;-58
2021/12/20 03:53:33;;;;;;;17.90;6.47;;;;;;;4.64;100.00;101654.28;5069012;28;20024;-58
2021/12/20 03:56:00;;;;;;;10.35;4.97;;;;;;;4.61;100.00;101652.56;5069151;28;20024;-58
2021/12/20 03:58:27;;;;;;;12.20;5.65;;;;;;;4.60;100.00;101645.63;5069065;28;20108;-58
2021/12/20 04:00:58;;;;;;;12.68;5.93;;;;;;;4.59;100.00;101643.91;5069679;28;20027;-58
2021/12/20 04:03:24;;;;;;;12.50;5.15;;;;;;;4.57;100.00;101636.97;5068160;28;20035;-58
2021/12/20 04:05:50;;;;;;;15.50;6.10;;;;;;;4.57;100.00;101642.19;5069497;28;20126;-58
2021/12/20 04:08:16;;;;;;;10.63;5.47;;;;;;;4.43;100.00;101617.97;5069324;28;20085;-58
2021/12/20 04:10:42;;;;;;;20.63;6.10;;;;;;;4.55;100.00;101639.59;5068757;28;20780;-58
2021/12/20 04:13:09;;;;;;;18.17;6.00;;;;;;;4.56;100.00;101643.06;5068228;28;20032;-58
2021/12/20 04:15:35;;;;;;;13.02;6.43;;;;;;;4.57;100.00;101639.56;5068772;28;20051;-58
2021/12/20 04:18:00;;;;;;;12.65;6.53;;;;;;;4.56;100.00;101650.88;5067644;28;20088;-58
2021/12/20 04:20:25;;;;;;;12.50;5.55;;;;;;;4.57;100.00;101640.44;5069624;28;20898;-58
2021/12/20 04:22:51;;;;;;;10.77;5.28;;;;;;;4.57;100.00;101644.78;5069385;28;20841;-58
2021/12/20 04:25:16;;;;;;;12.25;6.43;;;;;;;4.55;100.00;101641.34;5069379;28;20941;-58
2021/12/20 04:27:42;;;;;;;12.15;5.88;;;;;;;4.53;100.00;101648.28;5069245;28;20028;-58
2021/12/20 04:30:10;;;;;;;9.05;4.40;;;;;;;4.51;100.00;101650.91;5070457;28;20063;-58
2021/12/20 04:32:39;;;;;;;12.13;5.15;;;;;;;4.50;100.00;101658.69;5068783;28;20102;-58
2021/12/20 04:35:05;;;;;;;8.60;4.90;;;;;;;4.48;100.00;101650.91;5069329;28;20024;-58
2021/12/20 04:37:31;;;;;;;12.13;5.43;;;;;;;4.42;100.00;101635.34;5068714;28;20874;-58
2021/12/20 04:39:57;;;;;;;13.13;5.32;;;;;;;4.50;100.00;101645.69;5069493;28;20130;-58
2021/12/20 04:42:23;;;;;;;12.43;5.40;;;;;;;4.48;100.00;101647.44;5068871;28;20093;-57
2021/12/20 04:44:48;;;;;;;16.10;6.20;;;;;;;4.48;100.00;101647.44;5069230;28;20028;-58
2021/12/20 04:47:13;;;;;;;12.95;6.05;;;;;;;4.47;100.00;101648.31;5068507;28;20051;-58
2021/12/20 04:49:39;;;;;;;14.70;5.20;;;;;;;4.44;100.00;101648.31;5069075;28;20055;-58
2021/12/20 04:52:04;;;;;;;20.88;6.13;;;;;;;4.46;100.00;101644.00;5068485;28;20915;-58
2021/12/20 04:54:30;;;;;;;11.82;6.10;;;;;;;4.45;100.00;101631.84;5068959;28;20023;-58
2021/12/20 04:56:55;;;;;;;15.05;6.50;;;;;;;4.48;100.00;101631.84;5070138;28;20533;-58
2021/12/20 04:59:20;;;;;;;15.77;6.35;;;;;;;4.45;100.00;101632.72;5070613;28;20020;-58
2021/12/20 05:01:46;;;;;;;14.15;6.03;;;;;;;4.44;100.00;101637.91;5071271;28;20232;-57
2021/12/20 05:04:11;;;;;;;8.32;4.60;;;;;;;4.42;100.00;101642.28;5069374;28;20038;-58
2021/12/20 05:06:36;;;;;;;10.65;4.65;;;;;;;4.40;100.00;101642.28;5068397;28;20100;-58
2021/12/20 05:09:04;;;;;;;10.57;4.80;;;;;;;4.36;100.00;101637.13;5068359;28;20024;-58
2021/12/20 05:11:31;;;;;;;10.52;4.68;;;;;;;4.35;100.00;101643.19;5067686;28;20032;-58
2021/12/20 05:13:56;;;;;;;15.27;5.65;;;;;;;4.34;100.00;101641.44;5068646;28;20038;-57
2021/12/20 05:16:22;;;;;;;10.48;4.82;;;;;;;4.33;100.00;101639.69;5068527;28;20793;-58
2021/12/20 05:18:47;;;;;;;18.02;5.95;;;;;;;4.10;100.00;101601.66;5067100;28;20883;-58
2021/12/20 05:21:13;;;;;;;10.18;4.88;;;;;;;4.31;100.00;101641.47;5067877;28;20108;-58
2021/12/20 05:23:39;;;;;;;14.77;5.13;;;;;;;4.32;100.00;101643.19;5068038;28;20103;-58
2021/12/20 05:26:05;;;;;;;13.45;5.07;;;;;;;4.31;100.00;101641.47;5068064;28;20796;-58
2021/12/20 05:28:30;;;;;;;20.55;6.63;;;;;;;4.33;100.00;101639.69;5067579;28;20085;-58
2021/12/20 05:30:56;;;;;;;16.88;7.63;;;;;;;4.35;100.00;101644.03;5068182;28;20885;-58
2021/12/20 05:33:22;;;;;;;14.35;6.53;;;;;;;4.33;100.00;101645.78;5068963;28;20039;-58
2021/12/20 05:35:48;;;;;;;13.70;5.78;;;;;;;3.97;100.00;101580.91;5067798;28;20031;-58
2021/12/20 05:38:13;;;;;;;15.85;5.60;;;;;;;4.20;100.00;101627.63;5066806;28;21020;-58
2021/12/20 05:40:39;;;;;;;13.02;6.20;;;;;;;4.31;100.00;101660.53;5067664;28;20182;-59
2021/12/20 05:43:04;;;;;;;17.50;5.75;;;;;;;4.30;100.00;101665.72;5067937;28;20757;-58
2021/12/20 05:45:30;;;;;;;11.00;4.97;;;;;;;4.29;100.00;101666.63;5067801;28;20919;-58
2021/12/20 05:47:55;;;;;;;14.30;4.95;;;;;;;4.27;100.00;101661.41;5067510;28;20902;-58
2021/12/20 05:50:22;;;;;;;15.43;4.80;;;;;;;4.22;100.00;101654.50;5068494;28;20023;-58
2021/12/20 05:52:49;;;;;;;13.55;5.82;;;;;;;4.28;100.00;101659.69;5066203;28;20023;-58
2021/12/20 05:55:15;;;;;;;24.20;5.35;;;;;;;4.35;100.00;101661.38;5067774;28;20023;-58
2021/12/20 05:57:40;;;;;;;12.93;5.32;;;;;;;4.35;100.00;101656.19;5066368;28;20954;-58
2021/12/20 06:00:09;;;;;;;10.30;4.38;;;;;;;4.34;100.00;101662.25;5067861;28;20028;-58
2021/12/20 06:02:34;;;;;;;7.82;3.95;;;;;;;4.30;100.00;101669.19;5067821;28;20023;-57
2021/12/20 06:04:59;;;;;;;9.95;4.75;;;;;;;4.28;100.00;101667.50;5066580;28;20051;-58
2021/12/20 06:07:25;;;;;;;12.00;4.55;;;;;;;4.24;100.00;101664.03;5067736;28;20082;-58
2021/12/20 06:09:50;;;;;;;8.65;3.83;;;;;;;4.22;100.00;101657.13;5066153;28;20030;-58
2021/12/20 06:12:16;;;;;;;12.30;4.28;;;;;;;4.20;100.00;101664.91;5066670;28;20467;-57
2021/12/20 06:14:41;;;;;;;9.48;4.40;;;;;;;4.19;100.00;101667.53;5068047;28;20035;-58
2021/12/20 06:17:07;;;;;;;15.40;4.82;;;;;;;4.16;100.00;101672.75;5066293;28;20042;-58
2021/12/20 06:19:33;;;;;;;11.02;4.97;;;;;;;4.17;100.00;101677.06;5049730;28;20130;-58
2021/12/20 06:21:59;;;;;;;18.70;5.78;;;;;;;4.15;100.00;101665.81;5067355;28;20059;-58
2021/12/20 06:24:25;;;;;;;9.93;3.85;;;;;;;4.17;100.00;101669.25;5067329;28;20027;-58
2021/12/20 06:26:51;;;;;;;14.45;5.03;;;;;;;4.06;100.00;101651.94;5067476;28;20100;-57
2021/12/20 06:29:18;;;;;;;12.45;4.93;;;;;;;4.16;100.00;101668.38;5065925;28;20749;-57
2021/12/20 06:31:43;;;;;;;22.15;6.63;;;;;;;4.20;100.00;101680.50;5066206;28;20172;-57
2021/12/20 06:34:09;;;;;;;13.77;4.80;;;;;;;4.22;100.00;101684.00;5067473;28;20582;-58
2021/12/20 06:36:35;;;;;;;12.38;4.70;;;;;;;4.19;100.00;101677.94;5067528;28;21019;-57
2021/12/20 06:39:01;;;;;;;12.65;4.40;;;;;;;3.87;100.00;101620.81;5049284;28;20892;-57
2021/12/20 06:41:26;;;;;;;18.95;5.20;;;;;;;4.17;100.00;101679.66;5071020;28;20788;-58
2021/12/20 06:43:51;;;;;;;10.35;4.07;;;;;;;4.15;100.00;101681.41;5070336;28;20096;-57
2021/12/20 06:46:18;;;;;;;11.63;5.07;;;;;;;4.12;100.00;101680.53;5071215;28;20811;-57
2021/12/20 06:48:44;;;;;;;12.07;4.63;;;;;;;4.13;100.00;101679.66;5071374;28;20027;-58
2021/12/20 06:51:09;;;;;;;18.90;5.45;;;;;;;4.12;100.00;101687.50;5071701;28;20908;-58
2021/12/20 06:53:34;;;;;;;11.85;5.15;;;;;;;4.10;100.00;101684.88;5071602;28;20879;-58
2021/12/20 06:56:00;;;;;;;19.00;5.15;;;;;;;4.09;100.00;101685.75;5071464;28;20033;-58
2021/12/20 06:58:25;;;;;;;17.17;4.53;;;;;;;4.08;100.00;101684.03;5070536;28;20028;-57
2021/12/20 07:00:52;;;;;;;14.77;4.63;;;;;;;4.07;100.00;101684.91;5070163;28;20051;-58
2021/12/20 07:03:18;;;;;;;11.23;3.88;;;;;;;4.08;100.00;101681.44;5070609;28;20038;-58
2021/12/20 07:05:44;;;;;;;18.20;6.47;;;;;;;3.92;100.00;101658.94;5069060;28;20038;-58
2021/12/20 07:08:10;;;;;;;13.55;6.18;;;;;;;4.05;100.00;101681.44;5070482;28;20051;-58
2021/12/20 07:10:35;;;;;;;17.10;6.85;;;;;;;4.04;100.00;101687.50;5070557;28;20880;-57
2021/12/20 07:13:01;;;;;;;15.88;7.18;;;;;;;4.01;100.00;101678.84;5070583;28;20034;-57
2021/12/20 07:15:27;;;;;;;18.40;5.60;;;;;;;4.02;100.00;101681.44;5068835;28;20028;-57
2021/12/20 07:17:52;;;;;;;16.65;4.63;;;;;;;4.03;100.00;101683.16;5050080;28;20936;-57
2021/12/20 07:20:18;;;;;;;13.85;4.93;;;;;;;4.03;100.00;101683.16;5051496;28;20032;-58
2021/12/20 07:22:43;;;;;;;13.43;4.57;;;;;;;4.03;100.00;101697.91;5049592;28;20975;-57
2021/12/20 07:25:09;;;;;;;9.75;3.78;;;;;;;3.98;100.00;101695.34;5048344;28;20052;-57
2021/12/20 07:27:35;;;;;;;9.38;3.63;;;;;;;3.96;100.00;101697.06;5049713;28;20118;-57
2021/12/20 07:30:02;;;;;;;15.25;4.65;;;;;;;3.53;100.00;101617.44;5049877;28;20125;-57
2021/12/20 07:32:27;;;;;;;8.82;4.25;;;;;;;3.92;100.00;101690.13;5049611;28;20132;-57
2021/12/20 07:34:53;;;;;;;13.02;4.00;;;;;;;3.96;100.00;101698.78;5062470;28;20842;-58
2021/12/20 07:37:18;;;;;;;11.70;4.28;;;;;;;3.93;100.00;101701.38;5069674;28;20905;-57
2021/12/20 07:39:44;;;;;;;12.98;4.63;;;;;;;3.92;100.00;101697.09;5065932;28;20027;-58
2021/12/20 07:42:09;;;;;;;18.80;4.88;;;;;;;3.93;100.00;101701.38;5052977;28;20126;-58
2021/12/20 07:44:35;;;;;;;14.00;4.03;;;;;;;3.93;100.00;101707.47;5048054;28;20028;-58
2021/12/20 07:47:00;;;;;;;11.70;3.88;;;;;;;3.93;100.00;101702.25;5047697;28;20885;-58
2021/12/20 07:49:25;;;;;;;16.92;6.70;;;;;;;3.94;100.00;101704.00;5049286;28;20081;-58
2021/12/20 07:51:53;;;;;;;14.02;6.15;;;;;;;3.96;100.00;101707.47;5048239;28;20032;-58
2021/12/20 07:54:19;;;;;;;16.38;6.65;;;;;;;3.96;100.00;101712.66;5049560;28;20059;-58
2021/12/20 07:56:44;;;;;;;16.40;6.45;;;;;;;3.96;100.00;101712.66;5049957;28;20029;-58
2021/12/20 07:59:09;;;;;;;23.75;6.65;;;;;;;3.94;100.00;101708.34;5048173;28;20028;-57
2021/12/20 08:01:35;;;;;;;10.52;5.50;;;;;;;3.98;100.00;101710.94;5049014;28;20765;-58
2021/12/20 08:04:02;;;;;;;14.25;5.82;;;;;;;3.99;100.00;101712.66;5047420;28;20050;-58
2021/12/20 08:06:27;;;;;;;20.88;6.93;;;;;;;3.78;100.00;101681.50;5047945;28;20045;-57
2021/12/20 08:08:52;;;;;;;19.75;5.78;;;;;;;4.04;100.00;101710.03;5049702;28;20991;-57
2021/12/20 08:11:18;;;;;;;12.38;5.95;;;;;;;4.02;100.00;101702.22;5049637;28;20028;-57
2021/12/20 08:13:46;;;;;;;14.07;5.45;;;;;;;4.07;100.00;101716.09;5046562;28;20139;-57
2021/12/20 08:16:12;;;;;;;21.40;5.05;;;;;;;4.10;100.00;101715.22;5049585;28;20044;-58
2021/12/20 08:18:39;;;;;;;19.88;5.85;;;;;;;4.12;100.00;101719.53;5049318;28;20869;-58
2021/12/20 08:21:05;;;;;;;13.30;6.03;;;;;;;4.14;100.00;101722.16;5063578;28;20036;-57
2021/12/20 08:23:30;;;;;;;19.48;5.13;;;;;;;4.18;100.00;101713.47;5034383;28;20492;-58
2021/12/20 08:25:55;;;;;;;15.60;5.57;;;;;;;4.21;100.00;101717.81;5071046;28;20023;-57
2021/12/20 08:28:21;;;;;;;14.80;5.55;;;;;;;4.22;100.00;101716.94;5070249;28;20802;-58
2021/12/20 08:30:46;;;;;;;19.20;7.25;;;;;;;4.23;100.00;101713.44;5069025;28;20074;-58
2021/12/20 08:33:13;;;;;;;15.88;8.18;;;;;;;4.24;100.00;101728.19;5070562;28;20031;-57
2021/12/20 08:35:39;;;;;;;23.90;9.15;;;;;;;4.28;100.00;101722.13;5068906;28;20034;-57
2021/12/20 08:38:04;;;;;;;37.63;12.18;;;;;;;4.18;100.00;101702.22;5071177;28;20202;-57
2021/12/20 08:40:30;;;;;;;18.23;8.25;;;;;;;4.33;100.00;101721.22;5070817;28;20036;-57
2021/12/20 08:42:55;;;;;;;22.60;8.05;;;;;;;4.41;100.00;101721.19;5069534;28;20041;-57
2021/12/20 08:45:21;;;;;;;14.35;5.22;;;;;;;4.48;100.00;101730.72;5063038;28;20051;-58
2021/12/20 08:47:46;;;;;;;15.50;4.85;;;;;;;4.51;100.00;101718.56;5070209;28;20073;-57
2021/12/20 08:50:15;;;;;;;17.80;4.60;;;;;;;4.54;100.00;101715.94;5067690;28;20131;-58
2021/12/20 08:52:41;;;;;;;19.90;4.75;;;;;;;4.51;100.00;101717.69;5049833;28;20849;-57
2021/12/20 08:55:07;;;;;;;10.55;4.43;;;;;;;4.57;100.00;101722.84;5064268;28;20072;-58
2021/12/20 08:57:33;;;;;;;8.70;3.78;;;;;;;4.56;100.00;101721.16;5067165;28;21008;-58
2021/12/20 08:59:58;;;;;;;15.68;5.85;;;;;;;4.66;100.00;101728.03;5055412;28;20036;-58
2021/12/20 09:02:24;;;;;;;10.82;5.25;;;;;;;4.40;100.00;101672.63;5047151;28;20160;-58
2021/12/20 09:04:49;;;;;;;20.85;6.20;;;;;;;4.72;100.00;101721.94;5048572;28;20028;-58
2021/12/20 09:07:16;;;;;;;13.32;5.55;;;;;;;4.74;100.00;101727.97;5062247;28;20857;-58
2021/12/20 09:09:45;;;;;;;15.23;4.85;;;;;;;4.75;100.00;101721.91;5061554;28;20942;-58
2021/12/20 09:12:10;;;;;;;23.27;6.97;;;;;;;4.76;100.00;101714.13;5062911;28;20019;-57
2021/12/20 09:14:36;;;;;;;16.55;7.45;;;;;;;4.28;100.00;101631.94;5066049;28;20809;-57
2021/12/20 09:17:03;;;;;;;23.00;6.85;;;;;;;4.82;100.00;101721.88;5067002;28;20135;-57
2021/12/20 09:19:28;;;;;;;20.80;7.38;;;;;;;4.88;100.00;101724.44;5066563;28;20028;-57
2021/12/20 09:21:53;;;;;;;14.50;6.55;;;;;;;4.93;100.00;101721.81;5068097;28;20082;-57
2021/12/20 09:24:19;;;;;;;19.67;7.55;;;;;;;4.99;100.00;101727.88;5066343;28;20023;-57
2021/12/20 09:26:44;;;;;;;27.85;7.30;;;;;;;5.04;100.00;101720.88;5068799;28;20039;-57
2021/12/20 09:29:09;;;;;;;14.63;6.90;;;;;;;5.10;100.00;101730.41;5069073;28;20898;-57
2021/12/20 09:31:35;;;;;;;29.85;7.10;;;;;;;5.11;100.00;101732.97;5068995;28;20789;-57
2021/12/20 09:34:00;;;;;;;32.70;7.75;;;;;;;5.14;100.00;101727.75;5060340;28;20864;-57
2021/12/20 09:36:29;;;;;;;13.40;6.40;;;;;;;5.18;100.00;101732.94;5060987;28;20040;-57
2021/12/20 09:38:56;;;;;;;27.77;5.80;;;;;;;5.18;100.00;101739.03;5048340;28;20143;-57
2021/12/20 09:44:06;;;;;;;20.77;5.43;;;;;;;5.21;100.00;101748.53;5045898;28;20864;-57
2021/12/20 09:46:31;;;;;;;15.18;5.03;;;;;;;5.21;100.00;101744.19;5046051;28;20028;-57
2021/12/20 09:48:58;;;;;;;27.35;5.85;;;;;;;4.88;100.00;101698.41;5047337;28;20028;-57
2021/12/20 09:51:23;;;;;;;15.02;6.57;;;;;;;5.21;100.00;101759.84;5044519;28;20131;-57
2021/12/20 09:53:49;;;;;;;14.68;5.57;;;;;;;5.15;100.00;101733.81;5045706;28;20024;-57
2021/12/20 09:56:14;;;;;;;25.00;6.10;;;;;;;5.27;100.00;101753.75;5046942;28;20031;-57
2021/12/20 09:58:41;;;;;;;18.42;5.70;;;;;;;5.08;100.00;101714.78;5046813;28;20083;-57
2021/12/20 10:01:09;;;;;;;16.63;5.25;;;;;;;5.32;100.00;101752.81;5046701;28;20028;-57
2021/12/20 10:03:35;;;;;;;13.27;5.43;;;;;;;5.32;100.00;101755.44;5045272;28;20040;-57
2021/12/20 10:06:00;;;;;;;33.78;5.85;;;;;;;5.13;100.00;101726.03;5046465;28;20032;-57
2021/12/20 10:08:32;;;;;;;13.52;5.15;;;;;;;5.34;100.00;101764.09;5046460;28;20093;-58
2021/12/20 10:11:03;;;;;;;12.63;5.20;;;;;;;5.41;100.00;101760.56;5044867;28;20178;-57
2021/12/20 10:13:36;;;;;;;18.27;5.55;;;;;;;5.46;100.00;101761.41;5045356;28;20031;-57
2021/12/20 10:16:04;;;;;;;17.83;6.07;;;;;;;5.49;100.00;101757.91;5046084;28;20024;-57
2021/12/20 10:18:33;;;;;;;16.35;5.57;;;;;;;5.45;100.00;101743.16;5028747;28;20034;-57
2021/12/20 10:20:59;;;;;;;20.85;6.90;;;;;;;5.61;100.00;101766.50;5051556;28;20438;-57
2021/12/20 10:23:27;;;;;;;14.93;6.25;;;;;;;5.65;100.00;101762.13;5048696;28;20805;-57
2021/12/20 10:26:00;;;;;;;15.85;5.90;;;;;;;5.66;100.00;101762.13;5054530;28;20028;-57
2021/12/20 10:28:33;;;;;;;11.57;5.05;;;;;;;5.75;100.00;101752.47;5059234;28;20020;-58
2021/12/20 10:31:09;;;;;;;33.50;6.95;;;;;;;5.82;100.00;101762.84;5059558;28;20059;-58
2021/12/20 10:33:35;;;;;;;23.58;5.63;;;;;;;5.86;100.00;101756.75;5062150;28;20034;-57
2021/12/20 10:36:05;;;;;;;14.68;5.57;;;;;;;5.82;100.00;101749.81;5065248;28;20094;-57
2021/12/20 10:38:38;;;;;;;21.13;5.03;;;;;;;5.83;100.00;101751.53;5066329;28;20026;-57
2021/12/20 10:41:22;;;;;;;19.35;6.30;;;;;;;5.89;100.00;101756.72;5065715;28;20034;-57
2021/12/20 10:43:54;;;;;;;19.65;6.30;;;;;;;5.89;100.00;101755.88;5059310;28;20862;-57
2021/12/20 10:46:28;;;;;;;15.00;5.65;;;;;;;5.92;100.00;101758.44;5044548;28;20024;-57
2021/12/20 10:49:02;;;;;;;22.90;5.68;;;;;;;5.88;100.00;101744.56;5045744;28;20028;-57
2021/12/20 10:51:32;;;;;;;21.05;6.53;;;;;;;6.09;100.00;101759.16;5045047;28;20072;-57
2021/12/20 10:54:02;;;;;;;15.63;5.93;;;;;;;6.13;100.00;101753.91;5046527;28;20904;-57
2021/12/20 10:56:36;;;;;;;17.55;6.00;;;;;;;6.13;100.00;101751.28;5045759;28;20036;-57
2021/12/20 10:59:07;;;;;;;17.30;6.05;;;;;;;6.13;100.00;101758.25;5045010;28;20024;-57
2021/12/20 11:04:22;;;;;;;17.73;6.30;;;;;;;6.00;100.00;101760.13;5045003;28;20042;-58
2021/12/20 11:07:02;;;;;;;21.08;6.97;;;;;;;5.99;100.00;101758.38;5045688;28;20024;-58
2021/12/20 11:09:34;;;;;;;17.35;6.30;;;;;;;5.99;100.00;101760.97;5029200;28;20139;-58
2021/12/20 11:12:15;;;;;;;18.20;6.30;;;;;;;5.98;100.00;101766.22;5045779;28;20051;-58
2021/12/20 11:14:44;;;;;;;14.07;6.22;;;;;;;5.99;100.00;101752.28;5045534;28;20036;-58
2021/12/20 11:17:13;;;;;;;15.88;5.30;;;;;;;6.06;100.00;101753.97;5045742;28;20024;-57
2021/12/20 11:19:41;;;;;;;13.40;5.72;;;;;;;6.07;100.00;101750.47;5043491;28;20310;-57
2021/12/20 11:22:11;;;;;;;16.17;6.50;;;;;;;6.11;100.00;101745.22;5045142;28;20046;-58
2021/12/20 11:24:40;;;;;;;25.02;6.82;;;;;;;6.20;100.00;101746.00;5044591;28;20047;-58
2021/12/20 11:27:12;;;;;;;17.02;5.97;;;;;;;6.26;100.00;101748.53;5047385;28;20028;-57
2021/12/20 11:29:39;;;;;;;14.57;5.53;;;;;;;6.07;100.00;101720.03;5049012;28;20020;-58